createdAt,value
2018-04-12T00:00:39.787Z,12.81
2018-04-12T00:01:39.766Z,12.81
2018-04-12T00:02:39.747Z,12.83
2018-04-12T00:03:39.729Z,12.84
2018-04-12T00:04:39.708Z,12.87
2018-04-12T00:05:39.687Z,12.76
2018-04-12T00:06:39.669Z,12.72
2018-04-12T00:07:39.652Z,12.73
2018-04-12T00:08:39.634Z,12.66
2018-04-12T00:09:39.610Z,12.66
2018-04-12T00:10:39.594Z,12.75
2018-04-12T00:11:39.571Z,12.72
2018-04-12T00:12:39.563Z,12.66
2018-04-12T00:13:39.536Z,12.75
2018-04-12T00:14:39.515Z,12.72
2018-04-12T00:15:39.496Z,12.70
2018-04-12T00:16:39.482Z,12.76
2018-04-12T00:17:39.456Z,12.72
2018-04-12T00:18:39.437Z,12.70
2018-04-12T00:19:39.418Z,12.65
2018-04-12T00:20:39.401Z,12.66
2018-04-12T00:21:39.379Z,12.68
2018-04-12T00:22:39.362Z,12.66
2018-04-12T00:23:39.339Z,12.63
2018-04-12T00:24:39.332Z,12.61
2018-04-12T00:25:39.302Z,12.58
2018-04-12T00:26:39.283Z,12.61
2018-04-12T00:27:39.265Z,12.58
2018-04-12T00:28:39.245Z,12.62
2018-04-12T00:29:39.225Z,12.55
2018-04-12T00:30:39.207Z,12.53
2018-04-12T00:31:39.189Z,12.66
2018-04-12T00:32:39.168Z,12.57
2018-04-12T00:33:39.147Z,12.53
2018-04-12T00:34:39.127Z,12.54
2018-04-12T00:35:39.109Z,12.51
2018-04-12T00:36:39.090Z,12.61
2018-04-12T00:37:39.068Z,12.54
2018-04-12T00:38:39.053Z,12.54
2018-04-12T00:39:39.032Z,12.45
2018-04-12T00:40:39.012Z,12.57
2018-04-12T00:41:39.009Z,12.55
2018-04-12T00:42:38.973Z,12.63
2018-04-12T00:43:38.952Z,12.51
2018-04-12T00:44:38.933Z,12.40
2018-04-12T00:45:38.914Z,12.53
2018-04-12T00:46:38.894Z,12.40
2018-04-12T00:47:38.877Z,12.47
2018-04-12T00:48:38.855Z,12.40
2018-04-12T00:49:38.833Z,12.43
2018-04-12T00:50:38.815Z,12.48
2018-04-12T00:51:38.798Z,12.44
2018-04-12T00:52:38.776Z,12.44
2018-04-12T00:53:38.757Z,12.44
2018-04-12T00:54:38.736Z,12.39
2018-04-12T00:55:38.718Z,12.33
2018-04-12T00:56:38.698Z,12.32
2018-04-12T00:57:38.679Z,12.28
2018-04-12T00:58:38.660Z,12.28
2018-04-12T00:59:38.641Z,12.26
2018-04-12T01:00:38.622Z,12.26
2018-04-12T01:01:38.606Z,12.25
2018-04-12T01:02:38.581Z,12.23
2018-04-12T01:03:38.561Z,12.23
2018-04-12T01:04:38.544Z,12.25
2018-04-12T01:05:38.523Z,12.21
2018-04-12T01:06:38.502Z,12.17
2018-04-12T01:07:38.484Z,12.15
2018-04-12T01:08:38.464Z,12.20
2018-04-12T01:09:38.445Z,12.20
2018-04-12T01:10:38.426Z,12.15
2018-04-12T01:11:38.406Z,12.14
2018-04-12T01:12:38.387Z,12.14
2018-04-12T01:13:38.367Z,12.10
2018-04-12T01:14:38.346Z,12.14
2018-04-12T01:15:38.326Z,12.12
2018-04-12T01:16:38.333Z,12.12
2018-04-12T01:17:38.286Z,12.11
2018-04-12T01:18:38.267Z,12.07
2018-04-12T01:19:38.251Z,12.10
2018-04-12T01:20:38.228Z,12.11
2018-04-12T01:21:38.209Z,12.14
2018-04-12T01:22:38.190Z,12.10
2018-04-12T01:23:38.168Z,12.00
2018-04-12T01:24:38.148Z,12.00
2018-04-12T01:25:38.128Z,11.93
2018-04-12T01:26:38.109Z,11.89
2018-04-12T01:27:38.093Z,11.95
2018-04-12T01:28:38.074Z,11.95
2018-04-12T01:29:38.050Z,11.96
2018-04-12T01:30:38.029Z,11.96
2018-04-12T01:31:38.011Z,11.86
2018-04-12T01:32:37.996Z,11.93
2018-04-12T01:33:37.972Z,11.96
2018-04-12T01:34:37.949Z,11.96
2018-04-12T01:35:37.932Z,11.86
2018-04-12T01:36:37.914Z,11.86
2018-04-12T01:37:37.892Z,11.89
2018-04-12T01:38:37.873Z,11.85
2018-04-12T01:39:37.851Z,11.80
2018-04-12T01:40:37.834Z,11.78
2018-04-12T01:41:37.810Z,11.78
2018-04-12T01:42:37.792Z,11.71
2018-04-12T01:43:37.776Z,11.89
2018-04-12T01:44:37.751Z,11.83
2018-04-12T01:45:37.736Z,11.80
2018-04-12T01:46:37.721Z,11.83
2018-04-12T01:47:37.696Z,11.81
2018-04-12T01:48:37.673Z,11.81
2018-04-12T01:49:37.651Z,11.83
2018-04-12T01:50:37.632Z,11.74
2018-04-12T01:51:37.612Z,11.73
2018-04-12T01:52:37.592Z,11.76
2018-04-12T01:53:37.571Z,11.76
2018-04-12T01:54:37.554Z,11.71
2018-04-12T01:55:37.533Z,11.71
2018-04-12T01:56:37.520Z,11.73
2018-04-12T01:57:37.492Z,11.65
2018-04-12T01:58:37.472Z,11.73
2018-04-12T01:59:37.455Z,11.70
2018-04-12T02:00:37.432Z,11.65
2018-04-12T02:01:37.413Z,11.62
2018-04-12T02:02:37.393Z,11.65
2018-04-12T02:03:37.372Z,11.65
2018-04-12T02:04:37.355Z,11.67
2018-04-12T02:05:37.330Z,11.65
2018-04-12T02:06:37.316Z,11.70
2018-04-12T02:07:37.292Z,11.62
2018-04-12T02:08:37.272Z,11.55
2018-04-12T02:09:37.251Z,11.53
2018-04-12T02:10:37.239Z,11.58
2018-04-12T02:11:37.215Z,11.55
2018-04-12T02:12:37.194Z,11.58
2018-04-12T02:13:37.176Z,11.62
2018-04-12T02:14:37.153Z,11.55
2018-04-12T02:15:37.134Z,11.53
2018-04-12T02:16:37.115Z,11.52
2018-04-12T02:17:37.092Z,11.49
2018-04-12T02:18:37.072Z,11.45
2018-04-12T02:19:37.054Z,11.49
2018-04-12T02:20:37.051Z,11.40
2018-04-12T02:21:37.014Z,11.41
2018-04-12T02:22:36.993Z,11.49
2018-04-12T02:23:36.973Z,11.43
2018-04-12T02:24:36.952Z,11.45
2018-04-12T02:25:36.933Z,11.35
2018-04-12T02:26:36.912Z,11.41
2018-04-12T02:27:36.893Z,11.37
2018-04-12T02:28:36.874Z,11.37
2018-04-12T02:29:36.852Z,11.38
2018-04-12T02:30:36.832Z,11.25
2018-04-12T02:31:36.812Z,11.19
2018-04-12T02:32:36.791Z,11.33
2018-04-12T02:33:36.775Z,11.20
2018-04-12T02:34:36.751Z,11.27
2018-04-12T02:35:36.734Z,11.27
2018-04-12T02:36:36.720Z,11.23
2018-04-12T02:37:36.689Z,11.22
2018-04-12T02:38:36.671Z,11.22
2018-04-12T02:39:36.651Z,11.22
2018-04-12T02:40:36.632Z,11.22
2018-04-12T02:41:36.609Z,11.15
2018-04-12T02:42:36.591Z,11.16
2018-04-12T02:43:36.570Z,11.13
2018-04-12T02:44:36.550Z,11.15
2018-04-12T02:45:36.529Z,11.19
2018-04-12T02:46:36.510Z,11.12
2018-04-12T02:47:36.491Z,11.19
2018-04-12T02:48:36.468Z,11.13
2018-04-12T02:49:36.451Z,11.15
2018-04-12T02:50:36.444Z,11.12
2018-04-12T02:51:36.413Z,11.13
2018-04-12T02:52:36.387Z,11.01
2018-04-12T02:53:36.367Z,11.08
2018-04-12T02:54:36.347Z,11.05
2018-04-12T02:55:36.326Z,11.01
2018-04-12T02:56:36.305Z,11.01
2018-04-12T02:57:36.285Z,11.07
2018-04-12T02:58:36.267Z,11.00
2018-04-12T02:59:36.257Z,10.95
2018-04-12T03:00:36.249Z,10.92
2018-04-12T03:01:36.219Z,10.95
2018-04-12T03:02:36.898Z,10.86
2018-04-12T03:03:36.169Z,10.87
2018-04-12T03:04:36.147Z,10.94
2018-04-12T03:05:36.136Z,10.80
2018-04-12T03:06:36.121Z,10.82
2018-04-12T03:07:36.095Z,10.87
2018-04-12T03:08:36.059Z,10.79
2018-04-12T03:09:36.044Z,10.90
2018-04-12T03:10:36.019Z,10.79
2018-04-12T03:11:35.998Z,10.90
2018-04-12T03:12:35.978Z,10.72
2018-04-12T03:13:35.957Z,10.89
2018-04-12T03:14:35.939Z,10.77
2018-04-12T03:15:35.916Z,10.77
2018-04-12T03:16:35.905Z,10.83
2018-04-12T03:17:35.875Z,10.76
2018-04-12T03:18:35.862Z,10.80
2018-04-12T03:19:35.832Z,10.72
2018-04-12T03:20:35.813Z,10.72
2018-04-12T03:21:35.793Z,10.77
2018-04-12T03:22:35.773Z,10.69
2018-04-12T03:23:35.751Z,10.69
2018-04-12T03:24:35.731Z,10.72
2018-04-12T03:25:35.709Z,10.68
2018-04-12T03:26:35.689Z,10.64
2018-04-12T03:27:35.670Z,10.75
2018-04-12T03:28:35.650Z,10.68
2018-04-12T03:29:35.628Z,10.65
2018-04-12T03:30:35.608Z,10.59
2018-04-12T03:31:35.650Z,10.64
2018-04-12T03:32:35.567Z,10.62
2018-04-12T03:33:35.550Z,10.61
2018-04-12T03:34:35.523Z,10.65
2018-04-12T03:35:35.504Z,10.58
2018-04-12T03:36:35.485Z,10.59
2018-04-12T03:37:35.462Z,10.61
2018-04-12T03:38:35.441Z,10.59
2018-04-12T03:39:35.422Z,10.67
2018-04-12T03:40:35.401Z,10.59
2018-04-12T03:41:35.379Z,10.57
2018-04-12T03:42:35.360Z,10.55
2018-04-12T03:43:35.348Z,10.58
2018-04-12T03:44:35.318Z,10.53
2018-04-12T03:45:35.297Z,10.59
2018-04-12T03:46:35.275Z,10.49
2018-04-12T03:47:35.257Z,10.55
2018-04-12T03:48:35.296Z,10.55
2018-04-12T03:49:35.237Z,10.49
2018-04-12T03:50:35.237Z,10.51
2018-04-12T03:51:35.174Z,10.51
2018-04-12T03:52:35.153Z,10.51
2018-04-12T03:53:35.132Z,10.42
2018-04-12T03:54:35.113Z,10.53
2018-04-12T03:55:35.103Z,10.55
2018-04-12T03:56:35.075Z,10.57
2018-04-12T03:57:35.068Z,10.45
2018-04-12T03:58:35.027Z,10.49
2018-04-12T03:59:35.007Z,10.51
2018-04-12T04:00:34.986Z,10.53
2018-04-12T04:01:34.968Z,10.43
2018-04-12T04:02:34.984Z,10.39
2018-04-12T04:03:35.936Z,10.45
2018-04-12T04:04:34.902Z,10.51
2018-04-12T04:05:34.888Z,10.42
2018-04-12T04:06:34.863Z,10.41
2018-04-12T04:07:34.839Z,10.39
2018-04-12T04:08:34.820Z,10.49
2018-04-12T04:09:34.800Z,10.45
2018-04-12T04:10:34.779Z,10.45
2018-04-12T04:11:34.757Z,10.45
2018-04-12T04:12:34.738Z,10.41
2018-04-12T04:13:34.752Z,10.41
2018-04-12T04:14:34.696Z,10.39
2018-04-12T04:15:34.675Z,10.38
2018-04-12T04:16:34.652Z,10.38
2018-04-12T04:17:34.633Z,10.39
2018-04-12T04:18:34.644Z,10.39
2018-04-12T04:19:34.590Z,10.45
2018-04-12T04:20:34.570Z,10.43
2018-04-12T04:21:34.603Z,10.42
2018-04-12T04:22:34.599Z,10.38
2018-04-12T04:23:34.508Z,10.41
2018-04-12T04:24:34.517Z,10.41
2018-04-12T04:25:34.465Z,10.46
2018-04-12T04:26:34.473Z,10.43
2018-04-12T04:27:34.497Z,10.45
2018-04-12T04:28:34.488Z,10.53
2018-04-12T04:29:34.389Z,10.49
2018-04-12T04:30:34.364Z,10.53
2018-04-12T04:31:36.972Z,10.59
2018-04-12T04:32:34.353Z,10.67
2018-04-12T04:33:34.306Z,10.61
2018-04-12T04:34:34.277Z,10.61
2018-04-12T04:35:34.264Z,10.61
2018-04-12T04:36:34.237Z,10.75
2018-04-12T04:37:34.217Z,10.65
2018-04-12T04:38:34.239Z,10.68
2018-04-12T04:39:34.186Z,10.76
2018-04-12T04:40:34.175Z,10.76
2018-04-12T04:41:34.133Z,10.82
2018-04-12T04:42:34.113Z,10.90
2018-04-12T04:43:34.095Z,10.86
2018-04-12T04:44:34.072Z,10.82
2018-04-12T04:45:34.050Z,10.89
2018-04-12T04:46:34.035Z,10.89
2018-04-12T04:47:34.008Z,10.90
2018-04-12T04:48:33.992Z,10.90
2018-04-12T04:49:33.966Z,10.97
2018-04-12T04:50:33.946Z,10.97
2018-04-12T04:51:33.927Z,11.05
2018-04-12T04:52:33.907Z,11.04
2018-04-12T04:53:33.887Z,11.04
2018-04-12T04:54:33.865Z,11.08
2018-04-12T04:55:33.844Z,11.07
2018-04-12T04:56:33.822Z,11.19
2018-04-12T04:57:33.804Z,11.16
2018-04-12T04:58:33.781Z,11.16
2018-04-12T04:59:33.762Z,11.19
2018-04-12T05:00:33.740Z,11.27
2018-04-12T05:01:33.726Z,11.22
2018-04-12T05:02:33.704Z,11.22
2018-04-12T05:03:33.679Z,11.25
2018-04-12T05:04:33.659Z,11.22
2018-04-12T05:05:33.639Z,11.38
2018-04-12T05:06:33.634Z,11.31
2018-04-12T05:07:33.599Z,11.34
2018-04-12T05:08:33.618Z,11.41
2018-04-12T05:09:33.556Z,11.45
2018-04-12T05:10:33.535Z,11.37
2018-04-12T05:11:33.532Z,11.41
2018-04-12T05:12:33.505Z,11.43
2018-04-12T05:13:33.475Z,11.44
2018-04-12T05:14:33.465Z,11.48
2018-04-12T05:15:33.446Z,11.49
2018-04-12T05:16:33.414Z,11.52
2018-04-12T05:17:33.395Z,11.55
2018-04-12T05:18:33.374Z,11.60
2018-04-12T05:19:33.353Z,11.67
2018-04-12T05:20:33.333Z,11.63
2018-04-12T05:21:33.313Z,11.55
2018-04-12T05:22:33.300Z,11.62
2018-04-12T05:23:33.271Z,11.58
2018-04-12T05:24:33.251Z,11.65
2018-04-12T05:25:33.230Z,11.65
2018-04-12T05:26:33.212Z,11.73
2018-04-12T05:27:33.193Z,11.71
2018-04-12T05:28:33.172Z,11.80
2018-04-12T05:29:33.150Z,11.71
2018-04-12T05:30:33.130Z,11.77
2018-04-12T05:31:33.116Z,11.74
2018-04-12T05:32:33.094Z,11.85
2018-04-12T05:33:33.069Z,11.93
2018-04-12T05:34:33.048Z,11.95
2018-04-12T05:35:33.028Z,11.83
2018-04-12T05:36:33.009Z,11.85
2018-04-12T05:37:32.989Z,11.99
2018-04-12T05:38:32.968Z,11.96
2018-04-12T05:39:32.949Z,12.00
2018-04-12T05:40:32.935Z,11.97
2018-04-12T05:41:32.936Z,12.00
2018-04-12T05:42:32.925Z,12.02
2018-04-12T05:43:32.875Z,12.08
2018-04-12T05:44:32.863Z,12.07
2018-04-12T05:45:32.835Z,12.03
2018-04-12T05:46:32.810Z,12.15
2018-04-12T05:47:32.794Z,12.18
2018-04-12T05:48:32.768Z,12.14
2018-04-12T05:49:32.748Z,12.20
2018-04-12T05:50:32.731Z,12.14
2018-04-12T05:51:32.712Z,12.25
2018-04-12T05:52:32.689Z,12.26
2018-04-12T05:53:32.669Z,12.28
2018-04-12T05:54:32.650Z,12.26
2018-04-12T05:55:32.628Z,12.29
2018-04-12T05:56:32.627Z,12.28
2018-04-12T05:57:32.593Z,12.40
2018-04-12T05:58:32.578Z,12.39
2018-04-12T05:59:32.552Z,12.44
2018-04-12T06:00:32.528Z,12.43
2018-04-12T06:01:32.508Z,12.37
2018-04-12T06:02:32.492Z,12.39
2018-04-12T06:03:32.469Z,12.54
2018-04-12T06:04:32.463Z,12.48
2018-04-12T06:05:32.429Z,12.53
2018-04-12T06:06:32.410Z,12.62
2018-04-12T06:07:32.389Z,12.50
2018-04-12T06:08:32.372Z,12.57
2018-04-12T06:09:32.356Z,12.51
2018-04-12T06:10:32.334Z,12.55
2018-04-12T06:11:32.313Z,12.55
2018-04-12T06:12:32.294Z,12.53
2018-04-12T06:13:32.274Z,12.61
2018-04-12T06:14:32.252Z,12.63
2018-04-12T06:15:32.234Z,12.61
2018-04-12T06:16:32.217Z,12.68
2018-04-12T06:17:32.221Z,12.70
2018-04-12T06:18:32.198Z,12.73
2018-04-12T06:19:32.157Z,12.73
2018-04-12T06:20:32.138Z,12.80
2018-04-12T06:21:32.117Z,12.81
2018-04-12T06:22:32.098Z,12.87
2018-04-12T06:23:32.077Z,12.81
2018-04-12T06:24:32.057Z,12.78
2018-04-12T06:25:32.042Z,12.86
2018-04-12T06:26:32.019Z,12.88
2018-04-12T06:27:32.000Z,12.88
2018-04-12T06:28:32.039Z,12.91
2018-04-12T06:29:31.962Z,12.90
2018-04-12T06:30:31.941Z,12.86
2018-04-12T06:31:31.926Z,12.95
2018-04-12T06:32:31.903Z,12.99
2018-04-12T06:33:31.881Z,13.01
2018-04-12T06:34:31.864Z,13.01
2018-04-12T06:35:31.849Z,12.95
2018-04-12T06:36:31.825Z,12.94
2018-04-12T06:37:31.804Z,12.99
2018-04-12T06:38:31.785Z,12.98
2018-04-12T06:39:31.765Z,12.91
2018-04-12T06:40:31.745Z,12.94
2018-04-12T06:41:31.728Z,13.02
2018-04-12T06:42:31.706Z,12.98
2018-04-12T06:43:31.690Z,13.01
2018-04-12T06:44:31.671Z,13.05
2018-04-12T06:45:31.662Z,13.05
2018-04-12T06:46:31.632Z,13.08
2018-04-12T06:47:31.611Z,13.03
2018-04-12T06:48:31.593Z,13.05
2018-04-12T06:49:31.572Z,13.01
2018-04-12T06:50:31.550Z,12.98
2018-04-12T06:51:31.533Z,12.99
2018-04-12T06:52:31.516Z,12.98
2018-04-12T06:53:31.494Z,12.99
2018-04-12T06:54:31.473Z,12.94
2018-04-12T06:55:31.457Z,13.01
2018-04-12T06:56:31.441Z,13.02
2018-04-12T06:57:31.419Z,12.90
2018-04-12T06:58:31.399Z,12.84
2018-04-12T06:59:31.432Z,12.86
2018-04-12T07:00:31.361Z,12.93
2018-04-12T07:01:31.339Z,12.88
2018-04-12T07:02:31.320Z,12.87
2018-04-12T07:03:31.301Z,12.88
2018-04-12T07:04:31.281Z,12.86
2018-04-12T07:05:31.262Z,12.87
2018-04-12T07:06:31.247Z,12.87
2018-04-12T07:07:31.225Z,12.88
2018-04-12T07:08:31.205Z,12.87
2018-04-12T07:09:31.199Z,12.84
2018-04-12T07:10:31.165Z,12.81
2018-04-12T07:11:31.149Z,12.91
2018-04-12T07:12:31.126Z,12.90
2018-04-12T07:13:31.107Z,12.90
2018-04-12T07:14:31.087Z,12.93
2018-04-12T07:15:31.069Z,12.95
2018-04-12T07:16:31.049Z,12.90
2018-04-12T07:17:31.029Z,12.88
2018-04-12T07:18:31.011Z,12.90
2018-04-12T07:19:30.993Z,12.88
2018-04-12T07:20:30.970Z,12.94
2018-04-12T07:21:30.951Z,12.83
2018-04-12T07:22:30.934Z,12.90
2018-04-12T07:23:30.914Z,12.86
2018-04-12T07:24:30.898Z,12.86
2018-04-12T07:25:30.875Z,12.99
2018-04-12T07:26:30.856Z,12.98
2018-04-12T07:27:30.836Z,12.95
2018-04-12T07:28:30.818Z,13.01
2018-04-12T07:29:30.797Z,12.95
2018-04-12T07:30:30.778Z,13.03
2018-04-12T07:31:30.761Z,13.03
2018-04-12T07:32:30.740Z,13.03
2018-04-12T07:33:30.721Z,13.05
2018-04-12T07:34:30.703Z,13.08
2018-04-12T07:35:30.686Z,13.06
2018-04-12T07:36:30.667Z,13.16
2018-04-12T07:37:30.647Z,13.02
2018-04-12T07:38:30.625Z,13.17
2018-04-12T07:39:30.610Z,13.17
2018-04-12T07:40:30.585Z,13.19
2018-04-12T07:41:30.567Z,13.12
2018-04-12T07:42:30.547Z,13.21
2018-04-12T07:43:30.530Z,13.30
2018-04-12T07:44:30.509Z,13.30
2018-04-12T07:45:30.492Z,13.39
2018-04-12T07:46:30.470Z,13.42
2018-04-12T07:47:30.450Z,13.40
2018-04-12T07:48:30.435Z,13.47
2018-04-12T07:49:30.413Z,13.47
2018-04-12T07:50:30.400Z,13.54
2018-04-12T07:51:30.377Z,13.64
2018-04-12T07:52:30.357Z,13.60
2018-04-12T07:53:30.365Z,13.64
2018-04-12T07:54:30.322Z,13.67
2018-04-12T07:55:30.349Z,13.60
2018-04-12T07:56:30.280Z,13.61
2018-04-12T07:57:30.261Z,13.71
2018-04-12T07:58:30.246Z,13.75
2018-04-12T07:59:30.227Z,13.70
2018-04-12T08:00:30.207Z,13.78
2018-04-12T08:01:30.187Z,13.76
2018-04-12T08:02:30.170Z,13.73
2018-04-12T08:03:30.151Z,13.85
2018-04-12T08:04:30.137Z,13.85
2018-04-12T08:05:30.113Z,13.89
2018-04-12T08:06:30.094Z,13.83
2018-04-12T08:07:30.075Z,13.89
2018-04-12T08:08:30.057Z,13.85
2018-04-12T08:09:30.037Z,13.93
2018-04-12T08:10:30.021Z,13.98
2018-04-12T08:11:30.001Z,14.00
2018-04-12T08:12:29.981Z,14.13
2018-04-12T08:13:29.963Z,14.13
2018-04-12T08:14:29.944Z,14.22
2018-04-12T08:15:29.926Z,14.30
2018-04-12T08:16:29.909Z,14.28
2018-04-12T08:17:29.890Z,14.26
2018-04-12T08:18:29.870Z,14.33
2018-04-12T08:19:29.852Z,14.38
2018-04-12T08:20:29.836Z,14.43
2018-04-12T08:21:29.815Z,14.28
2018-04-12T08:22:29.804Z,14.23
2018-04-12T08:23:29.781Z,14.36
2018-04-12T08:24:29.760Z,14.38
2018-04-12T08:25:29.743Z,14.44
2018-04-12T08:26:29.724Z,14.49
2018-04-12T08:27:29.708Z,14.53
2018-04-12T08:28:29.689Z,14.58
2018-04-12T08:29:29.668Z,14.62
2018-04-12T08:30:29.653Z,14.55
2018-04-12T08:31:29.632Z,14.66
2018-04-12T08:32:29.617Z,14.66
2018-04-12T08:33:29.597Z,14.67
2018-04-12T08:34:29.588Z,14.74
2018-04-12T08:35:29.561Z,14.74
2018-04-12T08:36:29.542Z,14.68
2018-04-12T08:37:29.524Z,14.66
2018-04-12T08:38:29.506Z,14.53
2018-04-12T08:39:29.487Z,14.53
2018-04-12T08:40:29.472Z,14.51
2018-04-12T08:41:29.455Z,14.62
2018-04-12T08:42:29.442Z,14.56
2018-04-12T08:43:29.416Z,14.52
2018-04-12T08:44:29.399Z,14.58
2018-04-12T08:45:29.379Z,14.61
2018-04-12T08:46:29.362Z,14.56
2018-04-12T08:47:29.346Z,14.61
2018-04-12T08:48:29.326Z,14.66
2018-04-12T08:49:29.307Z,14.61
2018-04-12T08:50:29.289Z,14.49
2018-04-12T08:51:29.272Z,14.43
2018-04-12T08:52:29.255Z,14.49
2018-04-12T08:53:29.236Z,14.40
2018-04-12T08:54:29.216Z,14.51
2018-04-12T08:55:29.198Z,14.56
2018-04-12T08:56:29.182Z,14.55
2018-04-12T08:57:29.161Z,14.55
2018-04-12T08:58:29.146Z,14.66
2018-04-12T08:59:29.131Z,14.55
2018-04-12T09:00:29.110Z,14.62
2018-04-12T09:01:29.090Z,14.59
2018-04-12T09:02:29.074Z,14.52
2018-04-12T09:03:29.056Z,14.49
2018-04-12T09:04:29.039Z,14.45
2018-04-12T09:05:29.020Z,14.44
2018-04-12T09:06:29.004Z,14.38
2018-04-12T09:07:28.983Z,14.44
2018-04-12T09:08:28.965Z,14.43
2018-04-12T09:09:28.948Z,14.43
2018-04-12T09:10:28.928Z,14.44
2018-04-12T09:11:28.912Z,14.41
2018-04-12T09:12:28.894Z,14.37
2018-04-12T09:13:28.881Z,14.37
2018-04-12T09:14:28.855Z,14.36
2018-04-12T09:15:28.841Z,14.40
2018-04-12T09:16:28.834Z,14.37
2018-04-12T09:17:28.812Z,14.26
2018-04-12T09:18:28.787Z,14.31
2018-04-12T09:19:28.765Z,14.36
2018-04-12T09:20:28.753Z,14.38
2018-04-12T09:21:28.726Z,14.30
2018-04-12T09:22:28.715Z,14.41
2018-04-12T09:23:28.692Z,14.33
2018-04-12T09:24:28.675Z,14.44
2018-04-12T09:25:28.655Z,14.41
2018-04-12T09:26:28.642Z,14.30
2018-04-12T09:27:28.618Z,14.38
2018-04-12T09:28:28.601Z,14.23
2018-04-12T09:29:28.583Z,14.30
2018-04-12T09:30:28.566Z,14.37
2018-04-12T09:31:28.547Z,14.36
2018-04-12T09:32:28.531Z,14.48
2018-04-12T09:33:28.513Z,14.56
2018-04-12T09:34:28.492Z,14.66
2018-04-12T09:35:28.473Z,14.68
2018-04-12T09:36:28.456Z,14.81
2018-04-12T09:37:28.439Z,14.81
2018-04-12T09:38:28.422Z,14.94
2018-04-12T09:39:28.402Z,15.10
2018-04-12T09:40:28.383Z,15.29
2018-04-12T09:41:28.365Z,15.44
2018-04-12T09:42:28.349Z,15.50
2018-04-12T09:43:28.344Z,15.70
2018-04-12T09:44:28.314Z,15.60
2018-04-12T09:45:28.295Z,15.60
2018-04-12T09:46:28.281Z,15.83
2018-04-12T09:47:28.259Z,15.96
2018-04-12T09:48:28.241Z,15.98
2018-04-12T09:49:28.273Z,16.09
2018-04-12T09:50:28.208Z,16.17
2018-04-12T09:51:28.190Z,16.25
2018-04-12T09:52:28.173Z,16.41
2018-04-12T09:53:28.156Z,16.57
2018-04-12T09:54:28.139Z,16.59
2018-04-12T09:55:28.123Z,16.57
2018-04-12T09:56:28.109Z,16.57
2018-04-12T09:57:28.090Z,16.54
2018-04-12T09:58:28.078Z,16.62
2018-04-12T09:59:28.061Z,16.59
2018-04-12T10:00:28.056Z,16.57
2018-04-12T10:01:28.030Z,16.58
2018-04-12T10:02:28.006Z,16.37
2018-04-12T10:03:27.990Z,16.49
2018-04-12T10:04:27.974Z,16.34
2018-04-12T10:05:27.955Z,16.36
2018-04-12T10:06:27.939Z,16.31
2018-04-12T10:07:27.923Z,16.25
2018-04-12T10:08:27.908Z,16.26
2018-04-12T10:09:27.890Z,16.13
2018-04-12T10:10:27.874Z,16.18
2018-04-12T10:11:27.855Z,16.17
2018-04-12T10:12:27.843Z,16.24
2018-04-12T10:13:27.823Z,16.22
2018-04-12T10:14:27.808Z,16.32
2018-04-12T10:15:27.791Z,16.36
2018-04-12T10:16:27.773Z,16.43
2018-04-12T10:17:27.790Z,16.41
2018-04-12T10:18:27.752Z,16.43
2018-04-12T10:19:27.724Z,16.58
2018-04-12T10:20:27.709Z,16.54
2018-04-12T10:21:27.691Z,16.65
2018-04-12T10:22:27.674Z,16.69
2018-04-12T10:23:27.667Z,16.50
2018-04-12T10:24:27.643Z,16.43
2018-04-12T10:25:27.626Z,16.47
2018-04-12T10:26:27.609Z,16.51
2018-04-12T10:27:27.602Z,16.46
2018-04-12T10:28:27.580Z,16.54
2018-04-12T10:29:27.560Z,16.54
2018-04-12T10:30:27.556Z,16.50
2018-04-12T10:31:27.528Z,16.64
2018-04-12T10:32:27.511Z,16.77
2018-04-12T10:33:27.501Z,16.99
2018-04-12T10:34:27.484Z,17.39
2018-04-12T10:35:27.464Z,17.95
2018-04-12T10:36:27.445Z,18.46
2018-04-12T10:37:27.431Z,18.74
2018-04-12T10:38:27.419Z,18.96
2018-04-12T10:39:27.435Z,19.09
2018-04-12T10:40:27.389Z,19.17
2018-04-12T10:41:27.368Z,19.70
2018-04-12T10:42:27.354Z,20.07
2018-04-12T10:43:27.338Z,20.48
2018-04-12T10:44:27.343Z,20.71
2018-04-12T10:45:27.316Z,21.29
2018-04-12T10:46:27.308Z,22.15
2018-04-12T10:47:27.283Z,21.35
2018-04-12T10:48:27.272Z,22.46
2018-04-12T10:49:27.254Z,23.63
2018-04-12T10:50:27.254Z,24.78
2018-04-12T10:51:27.235Z,25.61
2018-04-12T10:52:27.224Z,26.64
2018-04-12T10:53:27.206Z,27.29
2018-04-12T10:54:27.195Z,27.55
2018-04-12T10:55:27.185Z,28.31
2018-04-12T10:56:27.176Z,28.56
2018-04-12T10:57:27.167Z,27.25
2018-04-12T10:58:27.157Z,26.67
2018-04-12T10:59:27.209Z,26.61
2018-04-12T11:00:27.147Z,26.49
2018-04-12T11:01:27.130Z,26.59
2018-04-12T11:02:27.125Z,27.04
2018-04-12T11:03:27.139Z,26.70
2018-04-12T11:04:27.109Z,26.56
2018-04-12T11:05:27.100Z,26.59
2018-04-12T11:06:27.093Z,26.60
2018-04-12T11:07:27.087Z,26.03
2018-04-12T11:08:27.079Z,25.73
2018-04-12T11:09:27.074Z,25.73
2018-04-12T11:10:27.070Z,25.86
2018-04-12T11:11:27.056Z,26.36
2018-04-12T11:12:27.049Z,26.61
2018-04-12T11:13:27.042Z,27.01
2018-04-12T11:14:27.037Z,26.81
2018-04-12T11:15:27.030Z,26.70
2018-04-12T11:16:27.022Z,26.67
2018-04-12T11:17:27.020Z,25.73
2018-04-12T11:18:27.085Z,25.24
2018-04-12T11:19:27.002Z,24.68
2018-04-12T11:20:27.015Z,24.40
2018-04-12T11:21:26.986Z,24.58
2018-04-12T11:22:26.980Z,25.21
2018-04-12T11:23:27.001Z,25.89
2018-04-12T11:24:26.999Z,26.61
2018-04-12T11:25:26.960Z,26.98
2018-04-12T11:26:26.952Z,27.43
2018-04-12T11:27:26.945Z,27.72
2018-04-12T11:28:26.937Z,28.38
2018-04-12T11:29:26.940Z,29.05
2018-04-12T11:30:26.925Z,29.84
2018-04-12T11:31:26.922Z,30.35
2018-04-12T11:32:26.917Z,30.74
2018-04-12T11:33:26.933Z,30.98
2018-04-12T11:34:26.921Z,31.23
2018-04-12T11:35:26.902Z,31.59
2018-04-12T11:36:26.982Z,31.89
2018-04-12T11:37:26.912Z,31.67
2018-04-12T11:39:27.974Z,30.63
2018-04-12T11:41:26.913Z,29.74
2018-04-12T11:42:27.226Z,29.73
2018-04-12T11:43:27.167Z,29.96
2018-04-12T11:44:27.042Z,30.08
2018-04-12T11:45:26.881Z,30.29
2018-04-12T11:46:26.864Z,29.62
2018-04-12T11:47:26.863Z,29.52
2018-04-12T11:48:26.859Z,29.21
2018-04-12T11:49:26.856Z,28.64
2018-04-12T11:50:26.855Z,27.91
2018-04-12T11:51:26.855Z,27.85
2018-04-12T11:52:26.865Z,28.04
2018-04-12T11:53:26.847Z,28.43
2018-04-12T11:54:26.840Z,28.70
2018-04-12T11:55:26.887Z,29.32
2018-04-12T11:56:26.865Z,29.69
2018-04-12T11:57:26.897Z,30.24
2018-04-12T11:58:26.848Z,30.55
2018-04-12T11:59:26.877Z,30.61
2018-04-12T12:00:26.835Z,31.30
2018-04-12T12:01:26.854Z,32.00
2018-04-12T12:02:26.827Z,32.51
2018-04-12T12:03:26.831Z,32.86
2018-04-12T12:04:26.805Z,32.91
2018-04-12T12:05:26.801Z,32.95
2018-04-12T12:06:26.982Z,33.31
2018-04-12T12:09:59.004Z,34.14
2018-04-12T12:10:58.950Z,34.35
2018-04-12T12:12:52.431Z,34.37
2018-04-12T12:13:52.339Z,34.58
2018-04-12T12:15:45.718Z,33.63
2018-04-12T12:16:45.716Z,34.13
2018-04-12T12:17:45.765Z,33.61
2018-04-12T12:18:45.699Z,32.60
2018-04-12T12:19:45.697Z,31.85
2018-04-12T12:20:45.695Z,32.34
2018-04-12T12:21:45.697Z,31.50
2018-04-12T12:22:45.738Z,30.52
2018-04-12T12:23:45.811Z,31.04
2018-04-12T12:24:45.937Z,31.81
2018-04-12T12:25:45.736Z,31.02
2018-04-12T12:26:45.757Z,31.72
2018-04-12T12:27:45.840Z,31.62
2018-04-12T12:28:45.820Z,31.10
2018-04-12T12:29:45.937Z,31.92
2018-04-12T12:30:45.807Z,32.41
2018-04-12T12:31:46.171Z,32.82
2018-04-12T12:32:45.745Z,33.26
2018-04-12T12:33:45.797Z,31.51
2018-04-12T12:34:45.835Z,31.95
2018-04-12T12:35:45.749Z,31.87
2018-04-12T12:36:45.752Z,31.22
2018-04-12T12:37:45.726Z,31.18
2018-04-12T12:38:45.895Z,31.28
2018-04-12T12:39:46.165Z,31.35
2018-04-12T12:40:45.715Z,32.27
2018-04-12T12:41:45.652Z,32.76
2018-04-12T12:42:45.684Z,33.12
2018-04-12T12:43:45.853Z,33.17
2018-04-12T12:44:45.874Z,33.70
2018-04-12T12:45:45.784Z,33.87
2018-04-12T12:46:45.877Z,34.29
2018-04-12T12:47:45.689Z,34.73
2018-04-12T12:48:45.789Z,35.00
2018-04-12T12:49:45.644Z,35.39
2018-04-12T12:50:45.881Z,35.60
2018-04-12T12:51:45.818Z,35.86
2018-04-12T12:52:45.633Z,36.18
2018-04-12T12:53:45.664Z,36.16
2018-04-12T12:54:45.630Z,36.01
2018-04-12T12:55:45.628Z,36.25
2018-04-12T12:56:45.630Z,36.35
2018-04-12T12:57:45.632Z,36.47
2018-04-12T12:58:45.628Z,36.65